Time,TemperatureF,DewpointF,PressureIn,WindDirection,WindDirectionDegrees,WindSpeedMPH,WindSpeedGustMPH,Humidity,HourlyPrecipIn,Conditions,Clouds,dailyrainin,SoftwareType,DateUTC
2013-03-07 00:00:00,30.3,26.9,30.16,NNW,345,0.0,0.0,87,0.00,,---,0.01,VWS V12.07,2013-03-07 05:00:00,
2013-03-07 00:30:00,30.3,26.9,30.16,North,5,0.0,0.0,87,0.00,,---,0.00,VWS V12.07,2013-03-07 05:30:00,
2013-03-07 01:00:00,30.1,27.0,30.16,NNE,18,0.0,2.0,88,0.00,,---,0.00,VWS V12.07,2013-03-07 06:00:00,
2013-03-07 01:30:00,30.1,27.0,30.17,NNE,26,0.0,2.0,88,0.00,,---,0.00,VWS V12.07,2013-03-07 06:30:00,
2013-03-07 02:00:00,30.1,27.0,30.17,NE,40,0.0,0.0,88,0.00,,---,0.00,VWS V12.07,2013-03-07 07:00:00,
2013-03-07 02:30:00,30.1,27.0,30.19,NNE,19,1.0,2.0,88,0.00,,---,0.00,VWS V12.07,2013-03-07 07:30:00,
2013-03-07 03:00:00,30.0,26.6,30.18,ENE,70,0.0,0.0,87,0.00,,---,0.00,VWS V12.07,2013-03-07 08:00:00,
2013-03-07 03:30:00,29.8,26.1,30.18,ENE,62,0.0,0.0,86,0.00,,---,0.00,VWS V12.07,2013-03-07 08:30:00,
2013-03-07 04:00:00,29.7,26.0,30.19,NE,40,0.0,0.0,86,0.00,,---,0.00,VWS V12.07,2013-03-07 09:00:00,
2013-03-07 04:30:00,29.7,25.8,30.22,North,360,0.0,3.0,85,0.00,,---,0.00,VWS V12.07,2013-03-07 09:30:00,
2013-03-07 05:00:00,29.7,26.0,30.21,North,5,0.0,2.0,86,0.00,,---,0.00,VWS V12.07,2013-03-07 10:00:00,
2013-03-07 05:30:00,29.1,25.2,30.21,North,5,0.0,0.0,85,0.00,,---,0.00,VWS V12.07,2013-03-07 10:30:00,
2013-03-07 06:00:00,27.8,24.7,30.22,North,5,0.0,0.0,88,0.00,,---,0.00,VWS V12.07,2013-03-07 11:00:00,
2013-03-07 06:30:00,27.3,25.0,30.23,North,5,0.0,0.0,91,0.00,,---,0.00,VWS V12.07,2013-03-07 11:30:00,
2013-03-07 07:00:00,27.6,25.3,30.24,NNW,333,0.0,1.0,91,0.00,,---,0.00,VWS V12.07,2013-03-07 12:00:00,
2013-03-07 07:30:00,27.5,25.2,30.25,NNW,333,0.0,0.0,91,0.00,,---,0.00,VWS V12.07,2013-03-07 12:30:00,
2013-03-07 08:00:00,27.8,25.2,30.24,NNW,333,0.0,0.0,90,0.00,,---,0.00,VWS V12.07,2013-03-07 13:00:00,
2013-03-07 08:30:00,29.3,26.2,30.24,NNW,333,0.0,0.0,88,0.00,,---,0.00,VWS V12.07,2013-03-07 13:30:00,
2013-03-07 09:00:00,30.7,26.2,30.24,NNE,26,0.0,1.0,83,0.00,,---,0.00,VWS V12.07,2013-03-07 14:00:00,
2013-03-07 09:30:00,31.9,26.4,30.25,NNE,17,0.0,2.0,80,0.00,,---,0.00,VWS V12.07,2013-03-07 14:30:00,
2013-03-07 10:00:00,34.3,27.2,30.25,NE,34,2.0,7.0,75,0.00,,---,0.00,VWS V12.07,2013-03-07 15:00:00,
2013-03-07 10:30:00,37.5,29.3,30.24,NNW,339,0.0,3.0,72,0.01,,---,0.01,VWS V12.07,2013-03-07 15:30:00,
2013-03-07 11:00:00,39.2,28.8,30.24,NNW,344,2.0,3.0,66,0.01,,---,0.01,VWS V12.07,2013-03-07 16:00:00,
2013-03-07 11:30:00,40.3,28.7,30.24,NE,44,2.0,10.0,63,0.00,,---,0.01,VWS V12.07,2013-03-07 16:30:00,
2013-03-07 12:00:00,45.7,33.8,30.21,NNW,342,0.0,2.0,63,0.00,,---,0.01,VWS V12.07,2013-03-07 17:00:00,
2013-03-07 12:30:00,45.7,33.0,30.20,NNE,32,2.0,4.0,61,0.00,,---,0.01,VWS V12.07,2013-03-07 17:30:00,
2013-03-07 13:00:00,46.1,32.2,30.19,NNE,17,0.0,4.0,58,0.00,,---,0.01,VWS V12.07,2013-03-07 18:00:00,
2013-03-07 13:30:00,47.7,31.4,30.17,NNW,332,1.0,3.0,53,0.00,,---,0.01,VWS V12.07,2013-03-07 18:30:00,
2013-03-07 14:00:00,49.9,34.4,30.16,NNW,338,1.0,4.0,55,0.00,,---,0.01,VWS V12.07,2013-03-07 19:00:00,
2013-03-07 14:30:00,51.1,34.1,30.15,North,5,0.0,3.0,52,0.00,,---,0.01,VWS V12.07,2013-03-07 19:30:00,
2013-03-07 15:00:00,52.0,32.4,30.16,NW,320,1.0,7.0,47,0.00,,---,0.01,VWS V12.07,2013-03-07 20:00:00,
2013-03-07 15:30:00,51.1,32.1,30.15,North,9,1.0,5.0,48,0.00,,---,0.01,VWS V12.07,2013-03-07 20:30:00,
2013-03-07 16:00:00,50.5,32.6,30.15,North,9,2.0,5.0,50,0.00,,---,0.01,VWS V12.07,2013-03-07 21:00:00,
2013-03-07 16:30:00,47.0,30.8,30.17,NNE,23,1.0,5.0,53,0.00,,---,0.01,VWS V12.07,2013-03-07 21:30:00,
2013-03-07 17:00:00,44.3,29.2,30.17,North,5,0.0,5.0,55,0.00,,---,0.01,VWS V12.07,2013-03-07 22:00:00,
2013-03-07 17:30:00,42.1,29.2,30.19,NE,34,1.0,5.0,60,0.00,,---,0.01,VWS V12.07,2013-03-07 22:30:00,
2013-03-07 18:00:00,40.5,28.9,30.20,NNE,19,0.0,2.0,63,0.00,,---,0.01,VWS V12.07,2013-03-07 23:00:00,
2013-03-07 18:30:00,38.6,28.6,30.21,NNE,15,0.0,1.0,67,0.00,,---,0.01,VWS V12.07,2013-03-07 23:30:00,
2013-03-07 19:00:00,36.9,28.0,30.23,NNW,346,0.0,0.0,70,0.00,,---,0.01,VWS V12.07,2013-03-08 00:00:00,
2013-03-07 19:30:00,35.2,28.4,30.23,NNE,12,0.0,0.0,76,0.00,,---,0.01,VWS V12.07,2013-03-08 00:30:00,
2013-03-07 20:00:00,33.1,27.9,30.25,North,11,0.0,0.0,81,0.00,,---,0.01,VWS V12.07,2013-03-08 01:00:00,
2013-03-07 20:30:00,32.1,27.8,30.25,NNE,12,0.0,0.0,84,0.00,,---,0.01,VWS V12.07,2013-03-08 01:30:00,
2013-03-07 21:00:00,31.0,27.3,30.25,NNE,12,0.0,0.0,86,0.00,,---,0.01,VWS V12.07,2013-03-08 02:00:00,
2013-03-07 21:30:00,30.4,27.0,30.24,NNE,12,0.0,0.0,87,0.00,,---,0.01,VWS V12.07,2013-03-08 02:30:00,
2013-03-07 22:00:00,29.8,26.7,30.25,NNE,12,0.0,0.0,88,0.00,,---,0.01,VWS V12.07,2013-03-08 03:00:00,
2013-03-07 22:30:00,29.4,26.6,30.25,NNE,12,0.0,0.0,89,0.00,,---,0.01,VWS V12.07,2013-03-08 03:30:00,
2013-03-07 23:30:00,27.9,25.4,30.23,NNE,12,0.0,0.0,90,0.00,,---,0.01,VWS V12.07,2013-03-08 04:30:00,